sensor_id;sensor_type;location;lat;lon;timestamp;pressure;altitude;pressure_sealevel;temperature;humidity
5753;BME280;2901;42.140;24.760;2023-02-03T00:00:38;99732.81;;;5.65;85.71
5753;BME280;2901;42.140;24.760;2023-02-03T00:03:04;99720.66;;;5.55;86.19
5753;BME280;2901;42.140;24.760;2023-02-03T00:05:30;99729.44;;;5.67;86.40
5753;BME280;2901;42.140;24.760;2023-02-03T00:07:55;99703.69;;;5.63;86.45
5753;BME280;2901;42.140;24.760;2023-02-03T00:10:21;99719.94;;;5.62;86.62
5753;BME280;2901;42.140;24.760;2023-02-03T00:12:48;99709.72;;;5.66;86.78
5753;BME280;2901;42.140;24.760;2023-02-03T00:15:14;99704.56;;;5.65;85.89
5753;BME280;2901;42.140;24.760;2023-02-03T00:17:39;99708.84;;;5.64;86.29
5753;BME280;2901;42.140;24.760;2023-02-03T00:20:05;99721.69;;;5.63;86.05
5753;BME280;2901;42.140;24.760;2023-02-03T00:22:30;99727.69;;;5.65;85.77
5753;BME280;2901;42.140;24.760;2023-02-03T00:24:56;99726.97;;;5.72;86.03
5753;BME280;2901;42.140;24.760;2023-02-03T00:27:21;99711.50;;;5.70;85.34
5753;BME280;2901;42.140;24.760;2023-02-03T00:29:46;99724.38;;;5.72;84.93
5753;BME280;2901;42.140;24.760;2023-02-03T00:32:12;99721.03;;;5.76;83.91
5753;BME280;2901;42.140;24.760;2023-02-03T00:34:37;99715.09;;;5.80;83.63
5753;BME280;2901;42.140;24.760;2023-02-03T00:37:02;99719.44;;;5.83;84.08
5753;BME280;2901;42.140;24.760;2023-02-03T00:39:28;99720.34;;;5.86;83.55
5753;BME280;2901;42.140;24.760;2023-02-03T00:41:53;99724.75;;;5.93;82.78
5753;BME280;2901;42.140;24.760;2023-02-03T00:44:18;99732.47;;;5.93;82.90
5753;BME280;2901;42.140;24.760;2023-02-03T00:46:44;99714.47;;;5.92;82.31
5753;BME280;2901;42.140;24.760;2023-02-03T00:49:09;99721.38;;;5.97;81.48
5753;BME280;2901;42.140;24.760;2023-02-03T00:51:35;99728.28;;;6.00;81.75
5753;BME280;2901;42.140;24.760;2023-02-03T00:54:00;99738.50;;;5.95;81.69
5753;BME280;2901;42.140;24.760;2023-02-03T00:56:25;99751.41;;;5.98;81.86
5753;BME280;2901;42.140;24.760;2023-02-03T00:58:51;99742.84;;;5.99;81.79
5753;BME280;2901;42.140;24.760;2023-02-03T01:01:16;99743.69;;;5.98;81.90
5753;BME280;2901;42.140;24.760;2023-02-03T01:03:41;99767.66;;;5.96;81.83
5753;BME280;2901;42.140;24.760;2023-02-03T01:06:15;99765.03;;;5.94;81.87
5753;BME280;2901;42.140;24.760;2023-02-03T01:08:42;99748.69;;;5.91;81.68
5753;BME280;2901;42.140;24.760;2023-02-03T01:11:09;99763.28;;;5.93;81.78
5753;BME280;2901;42.140;24.760;2023-02-03T01:13:35;99759.69;;;5.84;81.82
5753;BME280;2901;42.140;24.760;2023-02-03T01:16:01;99759.63;;;5.79;82.47
5753;BME280;2901;42.140;24.760;2023-02-03T01:18:26;99755.16;;;5.69;83.21
5753;BME280;2901;42.140;24.760;2023-02-03T01:20:52;99756.09;;;5.74;82.65
5753;BME280;2901;42.140;24.760;2023-02-03T01:23:17;99744.03;;;5.70;82.68
5753;BME280;2901;42.140;24.760;2023-02-03T01:25:43;99742.38;;;5.72;83.01
5753;BME280;2901;42.140;24.760;2023-02-03T01:28:08;99753.53;;;5.74;82.81
5753;BME280;2901;42.140;24.760;2023-02-03T01:30:34;99758.75;;;5.79;82.31
5753;BME280;2901;42.140;24.760;2023-02-03T01:32:59;99749.22;;;5.73;82.65
5753;BME280;2901;42.140;24.760;2023-02-03T01:35:25;99758.59;;;5.69;83.29
5753;BME280;2901;42.140;24.760;2023-02-03T01:37:50;99769.72;;;5.68;83.08
5753;BME280;2901;42.140;24.760;2023-02-03T01:40:16;99765.44;;;5.70;83.17
5753;BME280;2901;42.140;24.760;2023-02-03T01:42:42;99774.91;;;5.71;82.84
5753;BME280;2901;42.140;24.760;2023-02-03T01:45:09;99768.00;;;5.69;83.14
5753;BME280;2901;42.140;24.760;2023-02-03T01:47:44;99768.94;;;5.72;82.42
5753;BME280;2901;42.140;24.760;2023-02-03T01:50:21;99767.34;;;5.79;82.42
5753;BME280;2901;42.140;24.760;2023-02-03T01:52:50;99775.03;;;5.79;82.21
5753;BME280;2901;42.140;24.760;2023-02-03T01:55:25;99763.94;;;5.83;82.93
5753;BME280;2901;42.140;24.760;2023-02-03T01:57:58;99760.47;;;5.80;83.00
5753;BME280;2901;42.140;24.760;2023-02-03T02:00:25;99774.22;;;5.83;84.20
5753;BME280;2901;42.140;24.760;2023-02-03T02:02:51;99776.69;;;5.77;84.33
5753;BME280;2901;42.140;24.760;2023-02-03T02:05:33;99776.75;;;5.79;85.27
5753;BME280;2901;42.140;24.760;2023-02-03T02:08:01;99788.72;;;5.78;84.89
5753;BME280;2901;42.140;24.760;2023-02-03T02:10:31;99805.88;;;5.81;85.27
5753;BME280;2901;42.140;24.760;2023-02-03T02:12:58;99800.72;;;5.79;85.35
5753;BME280;2901;42.140;24.760;2023-02-03T02:15:59;99794.63;;;5.72;86.68
5753;BME280;2901;42.140;24.760;2023-02-03T02:27:01;99798.78;;;5.66;88.06
5753;BME280;2901;42.140;24.760;2023-02-03T02:35:24;99814.88;;;5.56;89.69
5753;BME280;2901;42.140;24.760;2023-02-03T02:43:01;99815.59;;;5.49;91.34
5753;BME280;2901;42.140;24.760;2023-02-03T02:45:44;99831.72;;;5.42;91.61
5753;BME280;2901;42.140;24.760;2023-02-03T02:48:19;99825.66;;;5.38;92.18
5753;BME280;2901;42.140;24.760;2023-02-03T02:50:49;99835.97;;;5.40;92.24
5753;BME280;2901;42.140;24.760;2023-02-03T02:53:20;99828.22;;;5.37;92.41
5753;BME280;2901;42.140;24.760;2023-02-03T02:55:47;99839.34;;;5.39;92.69
5753;BME280;2901;42.140;24.760;2023-02-03T02:58:14;99829.91;;;5.36;92.41
5753;BME280;2901;42.140;24.760;2023-02-03T03:00:42;99837.63;;;5.38;92.83
5753;BME280;2901;42.140;24.760;2023-02-03T03:03:13;99834.13;;;5.34;92.66
5753;BME280;2901;42.140;24.760;2023-02-03T03:05:41;99838.47;;;5.37;92.27
5753;BME280;2901;42.140;24.760;2023-02-03T03:08:09;99840.13;;;5.35;92.42
5753;BME280;2901;42.140;24.760;2023-02-03T03:10:40;99841.00;;;5.35;91.78
5753;BME280;2901;42.140;24.760;2023-02-03T03:13:11;99835.91;;;5.37;92.23
5753;BME280;2901;42.140;24.760;2023-02-03T03:15:39;99838.47;;;5.38;91.97
5753;BME280;2901;42.140;24.760;2023-02-03T03:18:18;99833.34;;;5.37;91.17
5753;BME280;2901;42.140;24.760;2023-02-03T03:20:47;99839.25;;;5.34;91.80
5753;BME280;2901;42.140;24.760;2023-02-03T03:23:36;99830.63;;;5.31;91.33
5753;BME280;2901;42.140;24.760;2023-02-03T03:29:28;99848.47;;;5.24;91.99
5753;BME280;2901;42.140;24.760;2023-02-03T03:31:55;99853.44;;;5.15;92.49
5753;BME280;2901;42.140;24.760;2023-02-03T03:34:20;99860.19;;;5.12;92.61
5753;BME280;2901;42.140;24.760;2023-02-03T03:36:57;99858.50;;;5.12;92.71
5753;BME280;2901;42.140;24.760;2023-02-03T03:42:17;99858.34;;;5.05;93.03
5753;BME280;2901;42.140;24.760;2023-02-03T03:44:52;99871.91;;;5.01;93.06
5753;BME280;2901;42.140;24.760;2023-02-03T03:47:58;99855.59;;;4.97;93.04
5753;BME280;2901;42.140;24.760;2023-02-03T03:50:42;99856.47;;;4.98;92.76
5753;BME280;2901;42.140;24.760;2023-02-03T03:53:12;99847.06;;;4.97;92.81
5753;BME280;2901;42.140;24.760;2023-02-03T03:55:40;99859.97;;;5.01;91.71
5753;BME280;2901;42.140;24.760;2023-02-03T03:58:10;99857.34;;;4.98;91.79
5753;BME280;2901;42.140;24.760;2023-02-03T04:00:38;99860.81;;;5.00;92.01
5753;BME280;2901;42.140;24.760;2023-02-03T04:03:11;99870.22;;;5.01;90.96
5753;BME280;2901;42.140;24.760;2023-02-03T04:05:39;99876.28;;;5.05;91.32
5753;BME280;2901;42.140;24.760;2023-02-03T04:08:05;99878.06;;;5.07;91.12
5753;BME280;2901;42.140;24.760;2023-02-03T04:10:34;99893.44;;;5.07;90.42
5753;BME280;2901;42.140;24.760;2023-02-03T04:13:00;99905.50;;;5.10;90.62
5753;BME280;2901;42.140;24.760;2023-02-03T04:15:27;99914.16;;;5.13;90.34
5753;BME280;2901;42.140;24.760;2023-02-03T04:17:52;99912.59;;;5.21;89.81
5753;BME280;2901;42.140;24.760;2023-02-03T04:20:19;99913.34;;;5.16;89.71
5753;BME280;2901;42.140;24.760;2023-02-03T04:22:44;99905.63;;;5.16;89.77
5753;BME280;2901;42.140;24.760;2023-02-03T04:25:09;99912.69;;;5.26;89.99
5753;BME280;2901;42.140;24.760;2023-02-03T04:27:35;99906.66;;;5.24;89.62
5753;BME280;2901;42.140;24.760;2023-02-03T04:30:01;99903.25;;;5.23;89.80
5753;BME280;2901;42.140;24.760;2023-02-03T04:32:26;99898.88;;;5.21;89.67
5753;BME280;2901;42.140;24.760;2023-02-03T04:34:51;99902.38;;;5.23;90.17
5753;BME280;2901;42.140;24.760;2023-02-03T04:37:17;99893.88;;;5.26;89.65
5753;BME280;2901;42.140;24.760;2023-02-03T04:39:42;99890.53;;;5.30;89.58
5753;BME280;2901;42.140;24.760;2023-02-03T04:42:07;99891.28;;;5.26;89.71
5753;BME280;2901;42.140;24.760;2023-02-03T04:44:33;99876.59;;;5.18;90.82
5753;BME280;2901;42.140;24.760;2023-02-03T04:46:58;99881.53;;;5.09;90.31
5753;BME280;2901;42.140;24.760;2023-02-03T04:49:24;99885.88;;;5.12;90.37
5753;BME280;2901;42.140;24.760;2023-02-03T04:51:49;99885.75;;;5.07;90.24
5753;BME280;2901;42.140;24.760;2023-02-03T04:54:14;99901.09;;;5.04;91.19
5753;BME280;2901;42.140;24.760;2023-02-03T04:56:40;99891.50;;;4.96;91.05
5753;BME280;2901;42.140;24.760;2023-02-03T04:59:06;99895.81;;;4.97;91.44
5753;BME280;2901;42.140;24.760;2023-02-03T05:01:32;99900.88;;;4.95;91.57
5753;BME280;2901;42.140;24.760;2023-02-03T05:03:57;99899.88;;;4.89;91.04
5753;BME280;2901;42.140;24.760;2023-02-03T05:06:27;99908.47;;;4.91;91.04
5753;BME280;2901;42.140;24.760;2023-02-03T05:08:54;99897.38;;;4.90;91.18
5753;BME280;2901;42.140;24.760;2023-02-03T05:11:20;99889.63;;;4.87;90.89
5753;BME280;2901;42.140;24.760;2023-02-03T05:13:46;99900.75;;;4.89;91.20
5753;BME280;2901;42.140;24.760;2023-02-03T05:16:12;99909.28;;;4.88;91.49
5753;BME280;2901;42.140;24.760;2023-02-03T05:18:37;99889.31;;;4.75;90.96
5753;BME280;2901;42.140;24.760;2023-02-03T05:21:03;99901.44;;;4.82;90.84
5753;BME280;2901;42.140;24.760;2023-02-03T05:23:28;99907.53;;;4.86;90.53
5753;BME280;2901;42.140;24.760;2023-02-03T05:25:54;99911.66;;;4.79;90.81
5753;BME280;2901;42.140;24.760;2023-02-03T05:28:19;99915.84;;;4.76;90.55
5753;BME280;2901;42.140;24.760;2023-02-03T05:30:45;99919.94;;;4.69;91.45
5753;BME280;2901;42.140;24.760;2023-02-03T05:33:10;99932.84;;;4.72;91.13
5753;BME280;2901;42.140;24.760;2023-02-03T05:35:36;99933.72;;;4.72;91.66
5753;BME280;2901;42.140;24.760;2023-02-03T05:38:01;99931.81;;;4.64;91.29
5753;BME280;2901;42.140;24.760;2023-02-03T05:40:27;99930.00;;;4.60;91.94
5753;BME280;2901;42.140;24.760;2023-02-03T05:43:11;99928.06;;;4.51;91.69
5753;BME280;2901;42.140;24.760;2023-02-03T05:45:36;99928.78;;;4.46;92.38
5753;BME280;2901;42.140;24.760;2023-02-03T05:48:01;99926.09;;;4.40;92.07
5753;BME280;2901;42.140;24.760;2023-02-03T05:50:30;99940.47;;;4.35;92.61
5753;BME280;2901;42.140;24.760;2023-02-03T05:53:01;99940.50;;;4.36;92.57
5753;BME280;2901;42.140;24.760;2023-02-03T05:55:27;99943.81;;;4.32;92.38
5753;BME280;2901;42.140;24.760;2023-02-03T05:57:53;99941.25;;;4.32;92.16
5753;BME280;2901;42.140;24.760;2023-02-03T06:00:20;99946.44;;;4.34;91.67
5753;BME280;2901;42.140;24.760;2023-02-03T06:02:53;99949.75;;;4.30;91.69
5753;BME280;2901;42.140;24.760;2023-02-03T06:05:20;99960.06;;;4.31;91.92
5753;BME280;2901;42.140;24.760;2023-02-03T06:07:46;99963.50;;;4.33;91.61
5753;BME280;2901;42.140;24.760;2023-02-03T06:10:11;99969.50;;;4.34;91.67
5753;BME280;2901;42.140;24.760;2023-02-03T06:12:37;99970.25;;;4.30;91.00
5753;BME280;2901;42.140;24.760;2023-02-03T06:15:03;99986.78;;;4.41;90.21
5753;BME280;2901;42.140;24.760;2023-02-03T06:17:29;99991.13;;;4.45;90.32
5753;BME280;2901;42.140;24.760;2023-02-03T06:19:54;99990.53;;;4.55;89.89
5753;BME280;2901;42.140;24.760;2023-02-03T06:22:20;99994.94;;;4.59;88.69
5753;BME280;2901;42.140;24.760;2023-02-03T06:24:45;99996.81;;;4.66;88.25
5753;BME280;2901;42.140;24.760;2023-02-03T06:27:13;99992.59;;;4.68;87.77
5753;BME280;2901;42.140;24.760;2023-02-03T06:29:39;100003.69;;;4.67;87.98
5753;BME280;2901;42.140;24.760;2023-02-03T06:32:04;100011.31;;;4.64;88.19
5753;BME280;2901;42.140;24.760;2023-02-03T06:34:31;100003.69;;;4.67;87.51
5753;BME280;2901;42.140;24.760;2023-02-03T06:36:57;100010.72;;;4.74;87.27
5753;BME280;2901;42.140;24.760;2023-02-03T06:39:22;100027.22;;;4.84;87.01
5753;BME280;2901;42.140;24.760;2023-02-03T06:41:48;100016.25;;;4.91;86.22
5753;BME280;2901;42.140;24.760;2023-02-03T06:44:15;100028.28;;;4.93;86.08
5753;BME280;2901;42.140;24.760;2023-02-03T06:46:40;100027.44;;;4.94;85.60
5753;BME280;2901;42.140;24.760;2023-02-03T06:49:06;100040.41;;;4.99;85.10
5753;BME280;2901;42.140;24.760;2023-02-03T06:51:31;100038.78;;;5.02;84.95
5753;BME280;2901;42.140;24.760;2023-02-03T06:53:56;100034.41;;;4.98;84.55
5753;BME280;2901;42.140;24.760;2023-02-03T06:56:23;100031.81;;;4.98;84.61
5753;BME280;2901;42.140;24.760;2023-02-03T06:58:48;100037.97;;;5.05;84.58
5753;BME280;2901;42.140;24.760;2023-02-03T07:01:13;100046.75;;;5.14;85.05
5753;BME280;2901;42.140;24.760;2023-02-03T07:03:39;100050.25;;;5.16;84.96
5753;BME280;2901;42.140;24.760;2023-02-03T07:06:05;100050.34;;;5.21;84.21
5753;BME280;2901;42.140;24.760;2023-02-03T07:08:30;100041.16;;;5.31;84.29
5753;BME280;2901;42.140;24.760;2023-02-03T07:10:55;100050.66;;;5.33;83.69
5753;BME280;2901;42.140;24.760;2023-02-03T07:13:21;100043.09;;;5.39;83.41
5753;BME280;2901;42.140;24.760;2023-02-03T07:15:46;100045.84;;;5.48;83.66
5753;BME280;2901;42.140;24.760;2023-02-03T07:18:12;100037.44;;;5.55;83.29
5753;BME280;2901;42.140;24.760;2023-02-03T07:20:37;100032.56;;;5.66;83.02
5753;BME280;2901;42.140;24.760;2023-02-03T07:23:02;100031.22;;;5.85;82.67
5753;BME280;2901;42.140;24.760;2023-02-03T07:25:29;100038.22;;;5.89;81.46
5753;BME280;2901;42.140;24.760;2023-02-03T07:27:55;100042.31;;;5.82;81.75
5753;BME280;2901;42.140;24.760;2023-02-03T07:30:21;100039.03;;;5.88;81.42
5753;BME280;2901;42.140;24.760;2023-02-03T07:32:50;100064.59;;;5.83;81.52
5753;BME280;2901;42.140;24.760;2023-02-03T07:35:16;100031.16;;;5.82;81.50
5753;BME280;2901;42.140;24.760;2023-02-03T07:37:42;100044.91;;;5.84;81.78
5753;BME280;2901;42.140;24.760;2023-02-03T07:40:09;100050.19;;;5.90;82.02
5753;BME280;2901;42.140;24.760;2023-02-03T07:42:34;100037.56;;;6.00;82.68
5753;BME280;2901;42.140;24.760;2023-02-03T07:45:00;100056.44;;;5.99;82.47
5753;BME280;2901;42.140;24.760;2023-02-03T07:47:25;100043.63;;;6.02;81.76
5753;BME280;2901;42.140;24.760;2023-02-03T07:49:50;100071.09;;;6.05;81.88
5753;BME280;2901;42.140;24.760;2023-02-03T07:52:16;100055.97;;;6.18;81.11
5753;BME280;2901;42.140;24.760;2023-02-03T07:54:41;100078.41;;;6.25;80.50
5753;BME280;2901;42.140;24.760;2023-02-03T07:57:06;100068.19;;;6.30;79.87
5753;BME280;2901;42.140;24.760;2023-02-03T07:59:32;100056.03;;;6.23;80.25
5753;BME280;2901;42.140;24.760;2023-02-03T08:01:58;100072.75;;;6.45;80.19
5753;BME280;2901;42.140;24.760;2023-02-03T08:04:23;100062.59;;;6.51;79.85
5753;BME280;2901;42.140;24.760;2023-02-03T08:06:49;100074.94;;;6.68;79.28
5753;BME280;2901;42.140;24.760;2023-02-03T08:09:14;100059.66;;;6.79;78.24
5753;BME280;2901;42.140;24.760;2023-02-03T08:11:40;100072.78;;;6.93;78.57
5753;BME280;2901;42.140;24.760;2023-02-03T08:14:05;100084.19;;;7.07;77.74
5753;BME280;2901;42.140;24.760;2023-02-03T08:16:30;100062.72;;;7.06;77.65
5753;BME280;2901;42.140;24.760;2023-02-03T08:18:56;100076.31;;;6.98;76.85
5753;BME280;2901;42.140;24.760;2023-02-03T08:21:22;100073.78;;;7.01;77.02
5753;BME280;2901;42.140;24.760;2023-02-03T08:23:47;100089.38;;;7.10;77.18
5753;BME280;2901;42.140;24.760;2023-02-03T08:26:13;100068.75;;;7.08;76.55
5753;BME280;2901;42.140;24.760;2023-02-03T08:28:38;100078.94;;;7.02;75.67
5753;BME280;2901;42.140;24.760;2023-02-03T08:31:10;100067.03;;;7.07;74.81
5753;BME280;2901;42.140;24.760;2023-02-03T08:33:36;100083.91;;;6.92;74.45
5753;BME280;2901;42.140;24.760;2023-02-03T08:36:02;100078.84;;;6.95;74.90
5753;BME280;2901;42.140;24.760;2023-02-03T08:38:27;100085.84;;;7.03;75.17
5753;BME280;2901;42.140;24.760;2023-02-03T08:40:53;100078.25;;;7.12;76.13
5753;BME280;2901;42.140;24.760;2023-02-03T08:43:18;100052.59;;;7.18;74.71
5753;BME280;2901;42.140;24.760;2023-02-03T08:45:44;100078.31;;;7.15;73.50
5753;BME280;2901;42.140;24.760;2023-02-03T08:48:09;100083.47;;;7.15;73.81
5753;BME280;2901;42.140;24.760;2023-02-03T08:50:34;100077.78;;;7.38;73.39
5753;BME280;2901;42.140;24.760;2023-02-03T08:53:00;100089.28;;;7.58;72.52
5753;BME280;2901;42.140;24.760;2023-02-03T08:55:25;100109.06;;;7.59;71.63
5753;BME280;2901;42.140;24.760;2023-02-03T08:57:51;100122.00;;;7.62;70.75
5753;BME280;2901;42.140;24.760;2023-02-03T09:00:16;100082.53;;;7.67;71.04
5753;BME280;2901;42.140;24.760;2023-02-03T09:02:42;100082.78;;;7.82;69.74
5753;BME280;2901;42.140;24.760;2023-02-03T09:05:07;100107.00;;;7.95;68.71
5753;BME280;2901;42.140;24.760;2023-02-03T09:07:33;100101.06;;;7.99;66.64
5753;BME280;2901;42.140;24.760;2023-02-03T09:09:58;100086.44;;;7.98;66.39
5753;BME280;2901;42.140;24.760;2023-02-03T09:12:24;100088.28;;;8.08;65.72
5753;BME280;2901;42.140;24.760;2023-02-03T09:14:49;100081.16;;;7.89;66.41
5753;BME280;2901;42.140;24.760;2023-02-03T09:17:15;100100.09;;;7.93;65.89
5753;BME280;2901;42.140;24.760;2023-02-03T09:19:40;100098.63;;;8.10;66.94
5753;BME280;2901;42.140;24.760;2023-02-03T09:22:05;100095.25;;;8.17;65.59
5753;BME280;2901;42.140;24.760;2023-02-03T09:24:31;100095.09;;;8.03;64.88
5753;BME280;2901;42.140;24.760;2023-02-03T09:26:56;100084.81;;;8.06;64.65
5753;BME280;2901;42.140;24.760;2023-02-03T09:29:22;100075.53;;;8.20;63.47
5753;BME280;2901;42.140;24.760;2023-02-03T09:31:48;100079.97;;;8.30;62.74
5753;BME280;2901;42.140;24.760;2023-02-03T09:34:17;100091.09;;;8.26;61.42
5753;BME280;2901;42.140;24.760;2023-02-03T09:36:43;100062.69;;;8.25;60.85
5753;BME280;2901;42.140;24.760;2023-02-03T09:39:08;100068.81;;;8.31;61.70
5753;BME280;2901;42.140;24.760;2023-02-03T09:47:14;100055.22;;;8.45;60.19
5753;BME280;2901;42.140;24.760;2023-02-03T09:49:53;100050.88;;;8.44;58.50
5753;BME280;2901;42.140;24.760;2023-02-03T09:52:23;100058.66;;;8.47;57.48
5753;BME280;2901;42.140;24.760;2023-02-03T09:54:56;100055.19;;;8.43;56.37
5753;BME280;2901;42.140;24.760;2023-02-03T09:57:28;100072.50;;;8.52;55.38
5753;BME280;2901;42.140;24.760;2023-02-03T09:59:56;100057.13;;;8.62;56.21
5753;BME280;2901;42.140;24.760;2023-02-03T10:02:48;100068.41;;;8.72;56.29
5753;BME280;2901;42.140;24.760;2023-02-03T10:05:42;100074.66;;;8.92;55.43
5753;BME280;2901;42.140;24.760;2023-02-03T10:10:45;100075.41;;;8.82;56.30
5753;BME280;2901;42.140;24.760;2023-02-03T10:15:59;100098.84;;;9.06;55.74
5753;BME280;2901;42.140;24.760;2023-02-03T10:18:41;100088.25;;;8.77;54.03
5753;BME280;2901;42.140;24.760;2023-02-03T10:21:15;100083.88;;;8.69;55.47
5753;BME280;2901;42.140;24.760;2023-02-03T10:23:42;100058.16;;;8.78;55.70
5753;BME280;2901;42.140;24.760;2023-02-03T10:26:19;100068.56;;;8.90;54.64
5753;BME280;2901;42.140;24.760;2023-02-03T10:28:52;100060.03;;;8.96;55.35
5753;BME280;2901;42.140;24.760;2023-02-03T10:31:22;100060.22;;;9.17;54.54
5753;BME280;2901;42.140;24.760;2023-02-03T10:34:10;100052.53;;;9.24;53.74
5753;BME280;2901;42.140;24.760;2023-02-03T10:37:00;100066.25;;;9.17;52.42
5753;BME280;2901;42.140;24.760;2023-02-03T10:42:03;100039.63;;;9.29;51.15
5753;BME280;2901;42.140;24.760;2023-02-03T10:44:35;100025.81;;;9.25;51.56
5753;BME280;2901;42.140;24.760;2023-02-03T10:47:18;100027.44;;;9.11;52.48
5753;BME280;2901;42.140;24.760;2023-02-03T10:49:47;100035.28;;;9.23;51.11
5753;BME280;2901;42.140;24.760;2023-02-03T10:54:50;100044.59;;;9.02;50.85
5753;BME280;2901;42.140;24.760;2023-02-03T10:57:16;100033.41;;;9.04;51.53
5753;BME280;2901;42.140;24.760;2023-02-03T10:59:44;100038.66;;;9.13;51.66
5753;BME280;2901;42.140;24.760;2023-02-03T11:02:29;100031.88;;;9.27;51.03
5753;BME280;2901;42.140;24.760;2023-02-03T11:07:40;100033.69;;;9.45;50.87
5753;BME280;2901;42.140;24.760;2023-02-03T11:12:50;100035.47;;;9.51;51.69
5753;BME280;2901;42.140;24.760;2023-02-03T11:15:15;100021.50;;;9.26;51.38
5753;BME280;2901;42.140;24.760;2023-02-03T11:17:43;100017.19;;;9.23;51.72
5753;BME280;2901;42.140;24.760;2023-02-03T11:20:14;100012.88;;;9.25;51.46
5753;BME280;2901;42.140;24.760;2023-02-03T11:22:41;100018.91;;;9.23;50.07
5753;BME280;2901;42.140;24.760;2023-02-03T11:25:19;100025.84;;;9.30;51.02
5753;BME280;2901;42.140;24.760;2023-02-03T11:27:46;100023.41;;;9.53;50.18
5753;BME280;2901;42.140;24.760;2023-02-03T11:32:41;100028.72;;;9.71;49.63
5753;BME280;2901;42.140;24.760;2023-02-03T11:35:21;100026.19;;;9.83;49.02
5753;BME280;2901;42.140;24.760;2023-02-03T11:37:53;100020.03;;;9.63;48.68
5753;BME280;2901;42.140;24.760;2023-02-03T11:43:13;100006.03;;;9.27;48.48
5753;BME280;2901;42.140;24.760;2023-02-03T11:45:42;100005.31;;;9.51;48.19
5753;BME280;2901;42.140;24.760;2023-02-03T12:00:01;99968.28;;;9.57;46.78
5753;BME280;2901;42.140;24.760;2023-02-03T12:02:50;99975.19;;;9.55;46.71
5753;BME280;2901;42.140;24.760;2023-02-03T12:08:35;99952.00;;;9.79;45.04
5753;BME280;2901;42.140;24.760;2023-02-03T12:11:26;99954.66;;;9.93;45.31
5753;BME280;2901;42.140;24.760;2023-02-03T12:30:02;99958.78;;;9.50;45.23
5753;BME280;2901;42.140;24.760;2023-02-03T12:32:39;99950.81;;;9.16;46.55
5753;BME280;2901;42.140;24.760;2023-02-03T12:35:32;99952.53;;;9.14;47.30
5753;BME280;2901;42.140;24.760;2023-02-03T12:40:58;99944.00;;;9.29;46.13
5753;BME280;2901;42.140;24.760;2023-02-03T12:45:54;99948.50;;;9.60;45.54
5753;BME280;2901;42.140;24.760;2023-02-03T12:48:39;99937.22;;;9.48;44.99
5753;BME280;2901;42.140;24.760;2023-02-03T12:51:12;99947.50;;;9.38;44.77
5753;BME280;2901;42.140;24.760;2023-02-03T12:53:47;99938.78;;;9.15;45.17
5753;BME280;2901;42.140;24.760;2023-02-03T12:56:17;99934.44;;;9.13;45.25
5753;BME280;2901;42.140;24.760;2023-02-03T12:58:49;99931.03;;;9.15;45.28
5753;BME280;2901;42.140;24.760;2023-02-03T13:01:26;99928.47;;;9.18;45.18
5753;BME280;2901;42.140;24.760;2023-02-03T13:04:07;99921.59;;;9.23;45.06
5753;BME280;2901;42.140;24.760;2023-02-03T13:20:20;99925.19;;;9.53;45.10
5753;BME280;2901;42.140;24.760;2023-02-03T13:22:45;99920.03;;;9.51;45.90
5753;BME280;2901;42.140;24.760;2023-02-03T13:25:40;99923.44;;;9.49;46.71
5753;BME280;2901;42.140;24.760;2023-02-03T13:39:42;99909.66;;;9.53;46.48
5753;BME280;2901;42.140;24.760;2023-02-03T13:42:22;99901.13;;;9.67;45.19
5753;BME280;2901;42.140;24.760;2023-02-03T13:44:56;99896.78;;;9.63;43.65
5753;BME280;2901;42.140;24.760;2023-02-03T13:47:26;99912.28;;;9.62;43.13
5753;BME280;2901;42.140;24.760;2023-02-03T13:49:58;99913.06;;;9.46;41.76
5753;BME280;2901;42.140;24.760;2023-02-03T13:52:28;99903.50;;;9.26;41.53
5753;BME280;2901;42.140;24.760;2023-02-03T13:54:56;99898.31;;;9.17;42.03
5753;BME280;2901;42.140;24.760;2023-02-03T13:57:37;99890.59;;;9.23;42.33
5753;BME280;2901;42.140;24.760;2023-02-03T14:00:06;99892.31;;;9.21;42.47
5753;BME280;2901;42.140;24.760;2023-02-03T14:02:53;99887.13;;;9.15;42.68
5753;BME280;2901;42.140;24.760;2023-02-03T14:05:40;99887.91;;;9.07;42.13
5753;BME280;2901;42.140;24.760;2023-02-03T14:14:00;99881.19;;;9.39;41.26
5753;BME280;2901;42.140;24.760;2023-02-03T14:16:44;99876.00;;;9.39;40.26
5753;BME280;2901;42.140;24.760;2023-02-03T14:22:04;99897.47;;;9.21;40.10
5753;BME280;2901;42.140;24.760;2023-02-03T14:24:32;99884.47;;;9.06;41.15
5753;BME280;2901;42.140;24.760;2023-02-03T14:27:01;99876.69;;;9.03;41.09
5753;BME280;2901;42.140;24.760;2023-02-03T14:29:35;99885.28;;;8.99;41.46
5753;BME280;2901;42.140;24.760;2023-02-03T14:32:05;99897.25;;;8.86;41.41
5753;BME280;2901;42.140;24.760;2023-02-03T14:37:23;99888.47;;;8.63;41.67
5753;BME280;2901;42.140;24.760;2023-02-03T14:51:34;99909.09;;;8.60;40.83
5753;BME280;2901;42.140;24.760;2023-02-03T15:00:00;99911.59;;;8.48;42.72
5753;BME280;2901;42.140;24.760;2023-02-03T15:02:30;99906.47;;;8.54;42.86
5753;BME280;2901;42.140;24.760;2023-02-03T15:07:44;99906.41;;;8.47;42.42
5753;BME280;2901;42.140;24.760;2023-02-03T15:10:18;99900.19;;;8.26;42.60
5753;BME280;2901;42.140;24.760;2023-02-03T15:12:49;99913.19;;;8.32;42.72
5753;BME280;2901;42.140;24.760;2023-02-03T15:17:46;99920.56;;;8.01;43.50
5753;BME280;2901;42.140;24.760;2023-02-03T15:20:39;99924.78;;;7.93;44.51
5753;BME280;2901;42.140;24.760;2023-02-03T15:29:02;99922.78;;;7.69;45.73
5753;BME280;2901;42.140;24.760;2023-02-03T15:31:38;99923.59;;;7.63;46.64
5753;BME280;2901;42.140;24.760;2023-02-03T15:34:18;99926.16;;;7.63;46.26
5753;BME280;2901;42.140;24.760;2023-02-03T15:36:49;99924.31;;;7.55;47.19
5753;BME280;2901;42.140;24.760;2023-02-03T15:41:44;99914.66;;;7.39;47.83
5753;BME280;2901;42.140;24.760;2023-02-03T15:44:21;99913.69;;;7.27;47.41
5753;BME280;2901;42.140;24.760;2023-02-03T15:46:50;99916.25;;;7.27;48.17
5753;BME280;2901;42.140;24.760;2023-02-03T15:49:24;99921.34;;;7.23;47.80
5753;BME280;2901;42.140;24.760;2023-02-03T15:51:56;99914.44;;;7.20;48.08
5753;BME280;2901;42.140;24.760;2023-02-03T15:57:03;99922.00;;;7.11;49.32
5753;BME280;2901;42.140;24.760;2023-02-03T15:59:43;99920.06;;;6.94;49.66
5753;BME280;2901;42.140;24.760;2023-02-03T16:02:16;99921.84;;;6.99;50.24
5753;BME280;2901;42.140;24.760;2023-02-03T16:04:43;99917.34;;;6.85;50.42
5753;BME280;2901;42.140;24.760;2023-02-03T16:07:28;99913.78;;;6.75;50.65